createdAt,value
2017-07-11T05:31:38.195Z,18.1
2017-07-11T05:32:03.668Z,18.05
2017-07-11T05:32:29.170Z,18.05
2017-07-11T05:32:54.622Z,18.03
2017-07-11T05:33:20.108Z,18.1
2017-07-11T05:33:45.548Z,18.23
2017-07-11T05:34:11.004Z,18.19
2017-07-11T05:34:36.474Z,18.15
2017-07-11T05:35:01.928Z,18.2
2017-07-11T05:35:27.396Z,18.08
2017-07-11T05:35:52.869Z,18.13
2017-07-11T05:36:18.330Z,18.22
2017-07-11T05:36:43.786Z,18.15
2017-07-11T05:37:09.265Z,18.25
2017-07-11T05:37:34.943Z,18.22
2017-07-11T05:38:00.358Z,18.28
2017-07-11T05:38:25.838Z,18.38
2017-07-11T05:38:51.322Z,18.31
2017-07-11T05:39:16.781Z,18.38
2017-07-11T05:39:42.271Z,18.44
2017-07-11T05:40:07.703Z,18.38
2017-07-11T05:40:33.147Z,18.4
2017-07-11T05:40:58.665Z,18.37
2017-07-11T05:41:24.138Z,18.31
2017-07-11T05:41:49.603Z,18.33
2017-07-11T05:42:15.051Z,18.31
2017-07-11T05:42:40.498Z,18.26
2017-07-11T05:43:05.945Z,18.26
2017-07-11T05:43:31.426Z,18.29
2017-07-11T05:43:56.890Z,18.23
2017-07-11T05:44:22.411Z,18.31
2017-07-11T05:44:47.896Z,18.29
2017-07-11T05:45:13.363Z,18.33
2017-07-11T05:45:38.860Z,18.28
2017-07-11T05:46:04.352Z,18.33
2017-07-11T05:46:29.867Z,18.26
2017-07-11T05:46:55.349Z,18.26
2017-07-11T05:47:20.813Z,18.31
2017-07-11T05:47:46.268Z,18.38
2017-07-11T05:48:11.756Z,18.34
2017-07-11T05:48:37.215Z,18.37
2017-07-11T05:49:02.687Z,18.38
2017-07-11T05:49:28.172Z,18.41
2017-07-11T05:49:53.630Z,18.4
2017-07-11T05:50:19.099Z,18.34
2017-07-11T05:50:44.564Z,18.37
2017-07-11T05:51:10.030Z,18.37
2017-07-11T05:51:35.515Z,18.34
2017-07-11T05:52:01.030Z,18.41
2017-07-11T05:52:26.499Z,18.41
2017-07-11T05:52:52.241Z,18.43
2017-07-11T05:53:17.816Z,18.49
2017-07-11T05:53:43.261Z,18.41
2017-07-11T05:54:08.797Z,18.38
2017-07-11T05:54:34.283Z,18.38
2017-07-11T05:54:59.725Z,18.33
2017-07-11T05:55:25.246Z,18.41
2017-07-11T05:55:50.708Z,18.35
2017-07-11T05:56:16.234Z,18.4
2017-07-11T05:56:41.707Z,18.37
2017-07-11T05:57:07.181Z,18.37
2017-07-11T05:57:32.757Z,18.37
2017-07-11T05:57:58.254Z,18.41
2017-07-11T05:58:23.705Z,18.37
2017-07-11T05:58:49.173Z,18.31
2017-07-11T05:59:14.640Z,18.34
2017-07-11T05:59:40.100Z,18.34
2017-07-11T06:00:05.563Z,18.34
2017-07-11T06:00:31.015Z,18.37
2017-07-11T06:00:56.490Z,18.34
2017-07-11T06:01:21.918Z,18.33
2017-07-11T06:01:47.447Z,18.2
2017-07-11T06:02:12.866Z,18.25
2017-07-11T06:02:38.329Z,18.08
2017-07-11T06:03:03.839Z,18.23
2017-07-11T06:03:29.302Z,18.19
2017-07-11T06:03:54.770Z,18.18
2017-07-11T06:04:20.214Z,18.1
2017-07-11T06:04:45.657Z,18.11
2017-07-11T06:05:11.140Z,18.1
2017-07-11T06:05:36.593Z,18.11
2017-07-11T06:06:02.057Z,18.05
2017-07-11T06:06:27.530Z,18.1
2017-07-11T06:06:52.991Z,18.07
2017-07-11T06:07:18.445Z,17.94
2017-07-11T06:07:43.966Z,17.95
2017-07-11T06:08:09.432Z,17.94
2017-07-11T06:08:34.949Z,17.97
2017-07-11T06:09:00.407Z,17.94
2017-07-11T06:09:25.868Z,17.9
2017-07-11T06:09:51.358Z,18.01
2017-07-11T06:10:16.834Z,17.95
2017-07-11T06:10:42.310Z,17.92
2017-07-11T06:11:07.753Z,18
2017-07-11T06:11:33.237Z,17.9
2017-07-11T06:11:58.776Z,17.95
2017-07-11T06:12:24.227Z,18.01
2017-07-11T06:12:49.720Z,17.98
2017-07-11T06:13:15.201Z,18.01
2017-07-11T06:13:40.697Z,17.98
2017-07-11T06:14:06.157Z,17.98
2017-07-11T06:14:31.605Z,18.1
2017-07-11T06:14:57.082Z,18.07
2017-07-11T06:15:22.556Z,18.03
2017-07-11T06:15:48.021Z,17.95
2017-07-11T06:16:13.476Z,18.07
2017-07-11T06:16:38.963Z,18
2017-07-11T06:17:04.420Z,17.94
2017-07-11T06:17:29.914Z,18.03
2017-07-11T06:17:55.403Z,18
2017-07-11T06:18:20.903Z,17.98
2017-07-11T06:18:46.391Z,18.07
2017-07-11T06:19:11.866Z,18.1
2017-07-11T06:19:37.324Z,18.15
2017-07-11T06:20:02.786Z,18.01
2017-07-11T06:20:28.260Z,17.98
2017-07-11T06:20:53.729Z,18.04
2017-07-11T06:21:19.221Z,17.98
2017-07-11T06:21:44.708Z,17.94
2017-07-11T06:22:10.182Z,18.05
2017-07-11T06:22:35.640Z,18.08
2017-07-11T06:23:01.146Z,18.08
2017-07-11T06:23:26.622Z,18.08
2017-07-11T06:23:52.068Z,18.1
2017-07-11T06:24:17.544Z,18.07
2017-07-11T06:24:43.041Z,17.98
2017-07-11T06:25:08.542Z,18.05
2017-07-11T06:25:34.012Z,18.01
2017-07-11T06:25:59.493Z,18.1
2017-07-11T06:26:25.009Z,18.07
2017-07-11T06:26:50.473Z,18.1
2017-07-11T06:27:15.965Z,17.97
2017-07-11T06:27:41.440Z,17.95
2017-07-11T06:28:06.947Z,17.92
2017-07-11T06:28:32.426Z,17.95
2017-07-11T06:28:57.882Z,17.94
2017-07-11T06:29:23.396Z,18
2017-07-11T06:29:48.834Z,17.97
2017-07-11T06:30:14.287Z,17.9
2017-07-11T06:30:39.778Z,17.92
2017-07-11T06:31:05.223Z,17.89
2017-07-11T06:31:30.707Z,17.78
2017-07-11T06:31:56.209Z,17.85
2017-07-11T06:32:21.686Z,17.78
2017-07-11T06:32:47.147Z,17.82
2017-07-11T06:33:12.597Z,17.79
2017-07-11T06:33:38.059Z,17.76
2017-07-11T06:34:03.533Z,17.8
2017-07-11T06:34:29.003Z,17.87
2017-07-11T06:34:54.491Z,17.8
2017-07-11T06:35:19.965Z,17.82
2017-07-11T06:35:45.466Z,17.85
2017-07-11T06:36:10.879Z,17.9
2017-07-11T06:36:36.380Z,17.94
2017-07-11T06:37:01.906Z,17.92
2017-07-11T06:37:27.354Z,17.9
2017-07-11T06:37:52.823Z,17.94
2017-07-11T06:38:18.263Z,17.92
2017-07-11T06:38:43.754Z,18.01
2017-07-11T06:39:09.234Z,17.98
2017-07-11T06:39:34.707Z,17.97
2017-07-11T06:40:00.161Z,17.97
2017-07-11T06:40:25.641Z,18.01
2017-07-11T06:40:51.107Z,17.98
2017-07-11T06:41:16.573Z,18.08
2017-07-11T06:41:42.046Z,17.98
2017-07-11T06:42:07.508Z,18.04
2017-07-11T06:42:32.995Z,18.08
2017-07-11T06:42:58.503Z,18.08
2017-07-11T06:43:23.952Z,18.11
2017-07-11T06:43:49.409Z,18.1
2017-07-11T06:44:14.867Z,18.07
2017-07-11T06:44:40.319Z,18.08
2017-07-11T06:45:05.791Z,18.08
2017-07-11T06:45:31.266Z,18.07
2017-07-11T06:45:56.706Z,18.04
2017-07-11T06:46:22.188Z,18.1
2017-07-11T06:46:47.653Z,18.1
2017-07-11T06:47:13.159Z,18.05
2017-07-11T06:47:38.601Z,18.05
2017-07-11T06:48:04.103Z,18.13
2017-07-11T06:48:29.590Z,18.04
2017-07-11T06:48:55.145Z,18.08
2017-07-11T06:49:20.623Z,18.08
2017-07-11T06:49:46.082Z,18.07
2017-07-11T06:50:11.545Z,18.19
2017-07-11T06:50:37.009Z,18.15
2017-07-11T06:51:02.475Z,18.15
2017-07-11T06:51:27.954Z,18.07
2017-07-11T06:51:53.430Z,18.16
2017-07-11T06:52:18.887Z,18.22
2017-07-11T06:52:44.354Z,18.22
2017-07-11T06:53:09.828Z,18.2
2017-07-11T06:53:35.307Z,18.11
2017-07-11T06:54:00.801Z,18.15
2017-07-11T06:54:26.295Z,18.13
2017-07-11T06:54:51.770Z,18.23
2017-07-11T06:55:17.263Z,18.2
2017-07-11T06:55:42.759Z,18.22
2017-07-11T06:56:08.237Z,18.22
2017-07-11T06:56:33.709Z,18.29
2017-07-11T06:56:59.165Z,18.23
2017-07-11T06:57:24.642Z,18.23
2017-07-11T06:57:50.123Z,18.22
2017-07-11T06:58:15.638Z,18.22
2017-07-11T06:58:41.070Z,18.23
2017-07-11T06:59:06.558Z,18.25
2017-07-11T06:59:32.024Z,18.29
2017-07-11T06:59:57.479Z,18.22
2017-07-11T07:00:23.003Z,18.26
2017-07-11T07:00:48.435Z,18.33
2017-07-11T07:01:13.911Z,18.22
2017-07-11T07:01:39.376Z,18.28
2017-07-11T07:02:04.839Z,18.28
2017-07-11T07:02:30.316Z,18.23
2017-07-11T07:02:55.790Z,18.31
2017-07-11T07:03:21.280Z,18.34
2017-07-11T07:03:46.742Z,18.31
2017-07-11T07:04:12.206Z,18.31
2017-07-11T07:04:37.671Z,18.29
2017-07-11T07:05:03.147Z,18.35
2017-07-11T07:05:28.622Z,18.29
2017-07-11T07:05:54.100Z,18.29
2017-07-11T07:06:19.546Z,18.35
2017-07-11T07:06:45.055Z,18.34
2017-07-11T07:07:43.064Z,18.43
2017-07-11T07:08:08.547Z,18.31
2017-07-11T07:08:34.024Z,18.41
2017-07-11T07:08:59.493Z,18.35
2017-07-11T07:09:24.981Z,18.38
2017-07-11T07:09:50.455Z,18.35
2017-07-11T07:10:15.937Z,18.37
2017-07-11T07:10:41.422Z,18.37
2017-07-11T07:11:06.906Z,18.41
2017-07-11T07:11:32.374Z,18.37
2017-07-11T07:11:57.882Z,18.43
2017-07-11T07:12:23.338Z,18.33
2017-07-11T07:12:48.794Z,18.4
2017-07-11T07:13:14.271Z,18.37
2017-07-11T07:13:39.730Z,18.38
2017-07-11T07:14:05.190Z,18.37
2017-07-11T07:14:30.658Z,18.41
2017-07-11T07:14:56.144Z,18.37
2017-07-11T07:15:21.620Z,18.37
2017-07-11T07:15:47.115Z,18.4
2017-07-11T07:16:12.602Z,18.44
2017-07-11T07:16:38.058Z,18.44
2017-07-11T07:17:03.540Z,18.41
2017-07-11T07:17:29.037Z,18.43
2017-07-11T07:17:54.498Z,18.38
2017-07-11T07:18:19.960Z,18.43
2017-07-11T07:18:45.430Z,18.4
2017-07-11T07:19:10.904Z,18.37
2017-07-11T07:19:36.369Z,18.37
2017-07-11T07:20:01.843Z,18.38
2017-07-11T07:20:27.310Z,18.35
2017-07-11T07:20:52.769Z,18.41
2017-07-11T07:21:18.227Z,18.4
2017-07-11T07:21:43.718Z,18.35
2017-07-11T07:22:09.161Z,18.34
2017-07-11T07:22:34.627Z,18.34
2017-07-11T07:23:00.094Z,18.31
2017-07-11T07:23:25.556Z,18.33
2017-07-11T07:23:51.031Z,18.35
2017-07-11T07:24:16.504Z,18.34
2017-07-11T07:24:42.003Z,18.34
2017-07-11T07:25:07.463Z,18.31
2017-07-11T07:25:32.931Z,18.35
2017-07-11T07:25:58.404Z,18.35
2017-07-11T07:26:23.872Z,18.33
2017-07-11T07:26:49.342Z,18.41
2017-07-11T07:27:14.824Z,18.37
2017-07-11T07:27:40.284Z,18.44
2017-07-11T07:28:05.768Z,18.34
2017-07-11T07:28:31.206Z,18.34
2017-07-11T07:28:56.704Z,18.38
2017-07-11T07:29:22.179Z,18.29
2017-07-11T07:29:47.637Z,18.37
2017-07-11T07:30:13.133Z,18.34
2017-07-11T07:30:38.613Z,18.33
2017-07-11T07:31:04.093Z,18.29
2017-07-11T07:31:29.569Z,18.31
2017-07-11T07:31:55.051Z,18.29
2017-07-11T07:32:20.507Z,18.31
2017-07-11T07:32:45.990Z,18.22
2017-07-11T07:33:11.471Z,18.28
2017-07-11T07:33:36.947Z,18.22
2017-07-11T07:34:02.443Z,18.38
2017-07-11T07:34:27.925Z,18.23
2017-07-11T07:34:53.416Z,18.31
2017-07-11T07:35:18.899Z,18.29
2017-07-11T07:35:44.401Z,18.22
2017-07-11T07:36:09.856Z,18.28
2017-07-11T07:36:35.315Z,18.28
2017-07-11T07:37:00.758Z,18.28
2017-07-11T07:37:26.238Z,18.26
2017-07-11T07:37:51.684Z,18.23
2017-07-11T07:38:17.159Z,18.33
2017-07-11T07:38:42.642Z,18.29
2017-07-11T07:39:08.133Z,18.26
2017-07-11T07:39:33.602Z,18.22
2017-07-11T07:39:59.104Z,18.33
2017-07-11T07:40:24.577Z,18.22
2017-07-11T07:40:50.032Z,18.28
2017-07-11T07:41:15.491Z,18.26
2017-07-11T07:41:40.972Z,18.26
2017-07-11T07:42:06.459Z,18.22
2017-07-11T07:42:31.962Z,18.23
2017-07-11T07:42:57.450Z,18.19
2017-07-11T07:43:22.941Z,18.22
2017-07-11T07:43:48.392Z,18.22
2017-07-11T07:44:13.899Z,18.19
2017-07-11T07:44:39.400Z,18.2
2017-07-11T07:45:04.891Z,18.23
2017-07-11T07:45:30.363Z,18.29
2017-07-11T07:45:55.845Z,18.22
2017-07-11T07:46:21.334Z,18.2
2017-07-11T07:46:46.820Z,18.22
2017-07-11T07:47:12.296Z,18.22
2017-07-11T07:47:37.799Z,18.25
2017-07-11T07:48:03.250Z,18.25
2017-07-11T07:48:28.719Z,18.25
2017-07-11T07:48:54.182Z,18.31
2017-07-11T07:49:19.714Z,18.31
2017-07-11T07:49:45.140Z,18.37
2017-07-11T07:50:10.616Z,18.4
2017-07-11T07:50:36.078Z,18.37
2017-07-11T07:51:01.656Z,18.37
2017-07-11T07:51:27.084Z,18.41
2017-07-11T07:51:52.521Z,18.43
2017-07-11T07:52:17.995Z,18.44
2017-07-11T07:52:43.446Z,18.44
2017-07-11T07:53:08.920Z,18.44
2017-07-11T07:53:34.385Z,18.49
2017-07-11T07:53:59.868Z,18.52
2017-07-11T07:54:25.340Z,18.62
2017-07-11T07:54:50.856Z,18.58
2017-07-11T07:55:16.333Z,18.56
2017-07-11T07:55:41.820Z,18.6
2017-07-11T07:56:07.271Z,18.58
2017-07-11T07:56:32.740Z,18.62
2017-07-11T07:56:58.205Z,18.6
2017-07-11T07:57:23.658Z,18.62
2017-07-11T07:57:49.135Z,18.71
2017-07-11T07:58:14.618Z,18.68
2017-07-11T07:58:40.073Z,18.68
2017-07-11T07:59:05.553Z,18.58
2017-07-11T07:59:30.997Z,18.6
2017-07-11T07:59:56.471Z,18.62
2017-07-11T08:00:21.944Z,18.52
2017-07-11T08:00:47.440Z,18.55
2017-07-11T08:01:12.926Z,18.5
2017-07-11T08:01:38.408Z,18.49
2017-07-11T08:02:03.929Z,18.45
2017-07-11T08:02:29.384Z,18.47
2017-07-11T08:02:54.902Z,18.45
2017-07-11T08:03:20.420Z,18.5
2017-07-11T08:03:45.917Z,18.52
2017-07-11T08:04:11.397Z,18.5
2017-07-11T08:04:36.924Z,18.49
2017-07-11T08:05:02.395Z,18.5
2017-07-11T08:05:27.860Z,18.49
2017-07-11T08:05:53.332Z,18.41
2017-07-11T08:06:18.863Z,18.43
2017-07-11T08:06:44.309Z,18.43
2017-07-11T08:07:09.788Z,18.4
2017-07-11T08:07:35.271Z,18.49
2017-07-11T08:08:00.725Z,18.4
2017-07-11T08:08:26.190Z,18.38
2017-07-11T08:08:51.682Z,18.37
2017-07-11T08:09:17.165Z,18.34
2017-07-11T08:09:42.610Z,18.35
2017-07-11T08:10:08.067Z,18.34
2017-07-11T08:10:33.539Z,18.31
2017-07-11T08:10:59.018Z,18.29
2017-07-11T08:11:24.480Z,18.28
2017-07-11T08:11:49.933Z,18.34
2017-07-11T08:12:15.430Z,18.31
2017-07-11T08:12:40.894Z,18.29
2017-07-11T08:13:06.405Z,18.31
2017-07-11T08:13:31.895Z,18.34
2017-07-11T08:13:57.362Z,18.4
2017-07-11T08:14:22.822Z,18.43
2017-07-11T08:14:48.294Z,18.41
2017-07-11T08:15:13.773Z,18.43
2017-07-11T08:15:39.267Z,18.44
2017-07-11T08:16:04.767Z,18.37
2017-07-11T08:16:30.228Z,18.4
2017-07-11T08:16:55.687Z,18.45
2017-07-11T08:17:21.145Z,18.38
2017-07-11T08:17:46.641Z,18.38
2017-07-11T08:18:12.120Z,18.41
2017-07-11T08:18:37.594Z,18.37
2017-07-11T08:19:03.065Z,18.37
2017-07-11T08:19:28.536Z,18.33
2017-07-11T08:19:53.993Z,18.35
2017-07-11T08:20:19.468Z,18.31
2017-07-11T08:20:44.968Z,18.31
2017-07-11T08:21:10.435Z,18.31
2017-07-11T08:21:35.921Z,18.29
2017-07-11T08:22:01.398Z,18.35
2017-07-11T08:22:26.857Z,18.33
2017-07-11T08:22:52.337Z,18.31
2017-07-11T08:23:17.833Z,18.34
2017-07-11T08:23:43.312Z,18.31
2017-07-11T08:24:08.814Z,18.33
2017-07-11T08:24:34.299Z,18.31
2017-07-11T08:24:59.777Z,18.35
2017-07-11T08:25:25.277Z,18.31
2017-07-11T08:25:50.773Z,18.31
2017-07-11T08:26:16.255Z,18.28
2017-07-11T08:26:41.693Z,18.28
2017-07-11T08:27:07.169Z,18.31
2017-07-11T08:27:32.655Z,18.31
2017-07-11T08:27:58.119Z,18.33
2017-07-11T08:28:23.573Z,18.33
2017-07-11T08:28:49.047Z,18.4
2017-07-11T08:29:14.514Z,18.34
2017-07-11T08:29:39.951Z,18.37
2017-07-11T08:30:05.434Z,18.33
2017-07-11T08:30:30.907Z,18.37
2017-07-11T08:30:56.383Z,18.37
2017-07-11T08:31:21.856Z,18.37
2017-07-11T08:31:47.334Z,18.35
2017-07-11T08:32:12.802Z,18.31
2017-07-11T08:32:38.288Z,18.35
2017-07-11T08:33:03.762Z,18.34
2017-07-11T08:33:29.231Z,18.34
2017-07-11T08:33:54.705Z,18.33
2017-07-11T08:34:20.167Z,18.35
2017-07-11T08:34:45.636Z,18.31
2017-07-11T08:35:11.096Z,18.4
2017-07-11T08:35:36.581Z,18.37
2017-07-11T08:36:02.086Z,18.37
2017-07-11T08:36:27.571Z,18.43
2017-07-11T08:36:53.056Z,18.37
2017-07-11T08:37:18.540Z,18.43
2017-07-11T08:37:44.020Z,18.41
2017-07-11T08:38:09.480Z,18.43
2017-07-11T08:38:35.025Z,18.43
2017-07-11T08:39:00.476Z,18.41
2017-07-11T08:39:25.967Z,18.49
2017-07-11T08:39:51.443Z,18.5
2017-07-11T08:40:16.918Z,18.52
2017-07-11T08:40:42.402Z,18.53
2017-07-11T08:41:07.901Z,18.5
2017-07-11T08:41:33.372Z,18.63
2017-07-11T08:41:58.843Z,18.53
2017-07-11T08:42:24.325Z,18.58
2017-07-11T08:42:49.820Z,18.58
2017-07-11T08:43:15.287Z,18.6
2017-07-11T08:43:40.758Z,18.58
2017-07-11T08:44:06.267Z,18.53
2017-07-11T08:44:31.733Z,18.52
2017-07-11T08:44:57.207Z,18.56
2017-07-11T08:45:22.743Z,18.52
2017-07-11T08:45:48.217Z,18.43
2017-07-11T08:46:13.705Z,18.47
2017-07-11T08:46:39.171Z,18.53
2017-07-11T08:47:04.640Z,18.5
2017-07-11T08:47:30.159Z,18.52
2017-07-11T08:47:55.652Z,18.55
2017-07-11T08:48:21.112Z,18.58
2017-07-11T08:48:46.599Z,18.5
2017-07-11T08:49:12.059Z,18.52
2017-07-11T08:49:37.536Z,18.53
2017-07-11T08:50:03.009Z,18.58
2017-07-11T08:50:28.479Z,18.59
2017-07-11T08:50:53.949Z,18.58
2017-07-11T08:51:19.417Z,18.62
2017-07-11T08:51:44.866Z,18.59
2017-07-11T08:52:10.341Z,18.63
2017-07-11T08:52:35.812Z,18.59
2017-07-11T08:53:01.280Z,18.65
2017-07-11T08:53:26.742Z,18.59
2017-07-11T08:53:52.215Z,18.66
2017-07-11T08:54:17.660Z,18.68
2017-07-11T08:54:43.177Z,18.6
2017-07-11T08:55:08.626Z,18.71
2017-07-11T08:55:34.135Z,18.7
2017-07-11T08:55:59.614Z,18.63
2017-07-11T08:56:25.115Z,18.66
2017-07-11T08:56:50.586Z,18.73
2017-07-11T08:57:16.068Z,18.75
2017-07-11T08:57:41.551Z,18.68
2017-07-11T08:58:07.014Z,18.68
2017-07-11T08:58:32.471Z,18.7
2017-07-11T08:58:57.959Z,18.73
2017-07-11T08:59:23.439Z,18.74
2017-07-11T08:59:48.940Z,18.78
2017-07-11T09:00:14.394Z,18.7
2017-07-11T09:00:39.885Z,18.75
2017-07-11T09:01:05.352Z,18.77
2017-07-11T09:01:30.817Z,18.74
2017-07-11T09:01:56.290Z,18.7
2017-07-11T09:02:21.760Z,18.74
2017-07-11T09:02:47.217Z,18.75
2017-07-11T09:03:12.713Z,18.8
2017-07-11T09:03:38.191Z,18.84
2017-07-11T09:04:03.684Z,18.88
2017-07-11T09:04:29.127Z,18.92
2017-07-11T09:04:54.588Z,18.89
2017-07-11T09:05:20.052Z,18.86
2017-07-11T09:05:45.543Z,18.88
2017-07-11T09:06:11.023Z,18.88
2017-07-11T09:06:36.522Z,18.89
2017-07-11T09:07:02.019Z,18.98
2017-07-11T09:07:27.516Z,18.93
2017-07-11T09:07:53.001Z,19
2017-07-11T09:08:18.483Z,18.98
2017-07-11T09:08:43.955Z,18.99
2017-07-11T09:09:09.423Z,18.98
2017-07-11T09:09:34.892Z,19.04
2017-07-11T09:10:00.360Z,19.08
2017-07-11T09:10:25.833Z,19.08
2017-07-11T09:10:51.300Z,19.08
2017-07-11T09:11:16.758Z,19.16
2017-07-11T09:11:42.330Z,19.22
2017-07-11T09:12:07.747Z,19.21
2017-07-11T09:12:33.223Z,19.27
2017-07-11T09:12:58.682Z,19.19
2017-07-11T09:13:24.139Z,19.29
2017-07-11T09:13:49.672Z,19.37
2017-07-11T09:14:15.123Z,19.24
2017-07-11T09:14:40.618Z,19.29
2017-07-11T09:15:06.125Z,19.3
2017-07-11T09:15:31.612Z,19.27
2017-07-11T09:15:57.071Z,19.27
2017-07-11T09:16:22.555Z,19.31
2017-07-11T09:16:47.994Z,19.36
2017-07-11T09:17:13.450Z,19.3
2017-07-11T09:17:38.910Z,19.19
2017-07-11T09:18:04.401Z,19.26
2017-07-11T09:18:29.882Z,19.31
2017-07-11T09:18:55.354Z,19.3
2017-07-11T09:19:20.843Z,19.27
2017-07-11T09:19:46.329Z,19.29
2017-07-11T09:20:11.793Z,19.27
2017-07-11T09:20:37.279Z,19.29
2017-07-11T09:21:02.738Z,19.31
2017-07-11T09:21:28.223Z,19.31
2017-07-11T09:21:53.692Z,19.41
2017-07-11T09:22:19.136Z,19.45
2017-07-11T09:22:44.601Z,19.31
2017-07-11T09:23:10.087Z,19.33
2017-07-11T09:23:35.612Z,19.27
2017-07-11T09:24:01.124Z,19.39
2017-07-11T09:24:26.585Z,19.41
2017-07-11T09:24:52.055Z,19.37
2017-07-11T09:25:17.556Z,19.4
2017-07-11T09:25:43.033Z,19.41
2017-07-11T09:26:08.502Z,19.52
2017-07-11T09:26:33.988Z,19.52
2017-07-11T09:26:59.465Z,19.41
2017-07-11T09:27:24.928Z,19.52
2017-07-11T09:27:50.402Z,19.52
2017-07-11T09:28:15.864Z,19.51
2017-07-11T09:28:41.352Z,19.58
2017-07-11T09:29:06.831Z,19.56
2017-07-11T09:29:32.318Z,19.58
2017-07-11T09:29:57.791Z,19.58
2017-07-11T09:30:23.304Z,19.51
2017-07-11T09:30:48.787Z,19.66
2017-07-11T09:31:14.248Z,19.63
2017-07-11T09:31:39.733Z,19.59
2017-07-11T09:32:05.199Z,19.62
2017-07-11T09:32:30.697Z,19.63
2017-07-11T09:32:56.170Z,19.69
2017-07-11T09:33:21.630Z,19.7
2017-07-11T09:33:47.097Z,19.76
2017-07-11T09:34:12.553Z,19.76
2017-07-11T09:34:38.020Z,19.76
2017-07-11T09:35:03.496Z,19.77
2017-07-11T09:35:29.035Z,19.67
2017-07-11T09:35:54.422Z,19.66
2017-07-11T09:36:19.903Z,19.66
2017-07-11T09:36:45.391Z,19.62
2017-07-11T09:37:10.896Z,19.62
2017-07-11T09:37:36.365Z,19.56
2017-07-11T09:38:01.851Z,19.54
2017-07-11T09:38:27.330Z,19.56
2017-07-11T09:38:52.830Z,19.49
2017-07-11T09:39:18.303Z,19.58
2017-07-11T09:39:43.771Z,19.59
2017-07-11T09:40:09.249Z,19.58
2017-07-11T09:40:34.715Z,19.64
2017-07-11T09:41:00.202Z,19.59
2017-07-11T09:41:25.719Z,19.63
2017-07-11T09:41:51.138Z,19.58
2017-07-11T09:42:16.621Z,19.62
2017-07-11T09:42:42.087Z,19.59
2017-07-11T09:43:07.556Z,19.55
2017-07-11T09:43:33.017Z,19.62
2017-07-11T09:43:58.520Z,19.58
2017-07-11T09:44:24.026Z,19.64
2017-07-11T09:44:49.481Z,19.59
2017-07-11T09:45:14.945Z,19.54
2017-07-11T09:45:40.412Z,19.55
2017-07-11T09:46:05.897Z,19.56
2017-07-11T09:46:31.418Z,19.63
2017-07-11T09:46:56.890Z,19.63
2017-07-11T09:47:22.375Z,19.63
2017-07-11T09:47:47.843Z,19.63
2017-07-11T09:48:13.303Z,19.63
2017-07-11T09:48:38.785Z,19.59
2017-07-11T09:49:04.273Z,19.67
2017-07-11T09:49:29.730Z,19.73
2017-07-11T09:49:55.211Z,19.73
2017-07-11T09:50:20.691Z,19.71
2017-07-11T09:50:46.162Z,19.74
2017-07-11T09:51:11.657Z,19.82
2017-07-11T09:51:37.155Z,19.77
2017-07-11T09:52:02.649Z,19.89
2017-07-11T09:52:28.144Z,19.85
2017-07-11T09:52:53.596Z,20
2017-07-11T09:53:19.105Z,20
2017-07-11T09:53:44.590Z,19.95
2017-07-11T09:54:10.067Z,19.96
2017-07-11T09:54:35.564Z,19.99
2017-07-11T09:55:01.075Z,20.09
2017-07-11T09:55:26.562Z,20.09
2017-07-11T09:55:52.050Z,20.02
2017-07-11T09:56:17.537Z,20.06
2017-07-11T09:56:43.014Z,20.07
2017-07-11T09:57:08.499Z,20.03
2017-07-11T09:57:33.967Z,20.16
2017-07-11T09:57:59.467Z,20.19
2017-07-11T09:58:24.957Z,20.18
2017-07-11T09:58:50.447Z,20.18
2017-07-11T09:59:15.949Z,20.21
2017-07-11T09:59:41.434Z,20.26
2017-07-11T10:00:06.938Z,20.26
2017-07-11T10:00:32.438Z,20.28
2017-07-11T10:00:57.953Z,20.37
2017-07-11T10:01:23.417Z,20.32
2017-07-11T10:01:48.891Z,20.32
2017-07-11T10:02:14.370Z,20.28
2017-07-11T10:02:39.830Z,20.29
2017-07-11T10:03:05.290Z,20.29
2017-07-11T10:03:30.780Z,20.36
2017-07-11T10:03:56.257Z,20.39
2017-07-11T10:04:21.807Z,20.34
2017-07-11T10:04:47.228Z,20.37
2017-07-11T10:05:12.732Z,20.37
2017-07-11T10:05:38.210Z,20.43
2017-07-11T10:06:03.684Z,20.44
2017-07-11T10:06:29.156Z,20.41
2017-07-11T10:06:54.642Z,20.5
2017-07-11T10:07:20.161Z,20.47
2017-07-11T10:07:45.635Z,20.51
2017-07-11T10:08:11.144Z,20.51
2017-07-11T10:08:36.679Z,20.6
2017-07-11T10:09:02.159Z,20.59
2017-07-11T10:09:27.675Z,20.62
2017-07-11T10:09:53.175Z,20.67
2017-07-11T10:10:18.673Z,20.75
2017-07-11T10:10:44.172Z,20.7
2017-07-11T10:11:09.644Z,20.75
2017-07-11T10:11:35.101Z,20.78
2017-07-11T10:12:00.578Z,20.77
2017-07-11T10:12:26.083Z,20.87
2017-07-11T10:12:51.559Z,20.81
2017-07-11T10:13:17.035Z,20.92
2017-07-11T10:13:42.511Z,20.96
2017-07-11T10:14:08.023Z,21
2017-07-11T10:14:33.516Z,20.93
2017-07-11T10:14:58.991Z,21.14
2017-07-11T10:15:24.455Z,21.12
2017-07-11T10:15:49.935Z,21.12
2017-07-11T10:16:15.413Z,21.14
2017-07-11T10:16:40.898Z,21.09
2017-07-11T10:17:06.388Z,21.15
2017-07-11T10:17:31.863Z,21.2
2017-07-11T10:17:57.356Z,21.2
2017-07-11T10:18:22.856Z,21.21
2017-07-11T10:18:48.362Z,21.2
2017-07-11T10:19:13.835Z,21.21
2017-07-11T10:19:39.310Z,21.25
2017-07-11T10:20:04.814Z,21.2
2017-07-11T10:20:30.295Z,21.22
2017-07-11T10:20:55.744Z,21.24
2017-07-11T10:21:21.213Z,21.22
2017-07-11T10:21:46.671Z,21.2
2017-07-11T10:22:12.145Z,21.25
2017-07-11T10:22:37.633Z,21.24
2017-07-11T10:23:03.110Z,21.25
2017-07-11T10:23:28.577Z,21.29
2017-07-11T10:23:54.046Z,21.27
2017-07-11T10:24:19.544Z,21.29
2017-07-11T10:24:45.039Z,21.33
2017-07-11T10:25:10.494Z,21.35
2017-07-11T10:25:36.014Z,21.25
2017-07-11T10:26:01.484Z,21.25
2017-07-11T10:26:26.952Z,21.3
2017-07-11T10:26:52.417Z,21.25
2017-07-11T10:27:17.899Z,21.15
2017-07-11T10:27:43.354Z,21.2
2017-07-11T10:28:08.846Z,21.11
2017-07-11T10:28:34.350Z,21.15
2017-07-11T10:28:59.812Z,21.09
2017-07-11T10:29:25.287Z,21.05
2017-07-11T10:29:50.779Z,21.02
2017-07-11T10:30:16.227Z,21.07
2017-07-11T10:30:41.718Z,21.02
2017-07-11T10:31:07.199Z,21.07
2017-07-11T10:31:32.677Z,21
2017-07-11T10:31:58.145Z,21.03
2017-07-11T10:32:23.619Z,21.11
2017-07-11T10:32:49.117Z,21.06
2017-07-11T10:33:14.601Z,21.07
2017-07-11T10:33:40.072Z,21.17
2017-07-11T10:34:05.529Z,21.15
2017-07-11T10:34:31.014Z,21.27
2017-07-11T10:34:56.500Z,21.27
2017-07-11T10:35:21.998Z,21.25
2017-07-11T10:35:47.499Z,21.21
2017-07-11T10:36:12.964Z,21.25
2017-07-11T10:36:38.478Z,21.22
2017-07-11T10:37:03.955Z,21.21
2017-07-11T10:37:29.407Z,21.21
2017-07-11T10:37:54.916Z,21.24
2017-07-11T10:38:20.386Z,21.35
2017-07-11T10:38:45.853Z,21.33
2017-07-11T10:39:11.379Z,21.39
2017-07-11T10:39:36.850Z,21.37
2017-07-11T10:40:02.309Z,21.39
2017-07-11T10:40:27.838Z,21.48
2017-07-11T10:40:53.289Z,21.46
2017-07-11T10:41:18.762Z,21.43
2017-07-11T10:41:44.269Z,21.45
2017-07-11T10:42:09.730Z,21.42
2017-07-11T10:42:35.188Z,21.45
2017-07-11T10:43:00.706Z,21.52
2017-07-11T10:43:26.134Z,21.51
2017-07-11T10:43:51.610Z,21.55
2017-07-11T10:44:17.087Z,21.54
2017-07-11T10:44:42.568Z,21.61
2017-07-11T10:45:08.054Z,21.62
2017-07-11T10:45:33.504Z,21.58
2017-07-11T10:45:58.948Z,21.61
2017-07-11T10:46:24.418Z,21.62
2017-07-11T10:46:49.879Z,21.67
2017-07-11T10:47:15.366Z,21.67
2017-07-11T10:47:40.840Z,21.76
2017-07-11T10:48:06.321Z,21.67
2017-07-11T10:48:31.832Z,21.62
2017-07-11T10:48:57.306Z,21.7
2017-07-11T10:49:22.801Z,21.82
2017-07-11T10:49:48.281Z,21.77
2017-07-11T10:50:13.761Z,21.77
2017-07-11T10:50:39.238Z,21.77
2017-07-11T10:51:04.719Z,21.82
2017-07-11T10:51:30.221Z,21.79
2017-07-11T10:51:55.718Z,21.89
2017-07-11T10:52:21.221Z,21.83
2017-07-11T10:52:46.701Z,21.83
2017-07-11T10:53:12.173Z,21.88
2017-07-11T10:53:37.649Z,21.95
2017-07-11T10:54:03.126Z,21.92
2017-07-11T10:54:28.599Z,21.95
2017-07-11T10:54:54.070Z,21.92
2017-07-11T10:55:19.542Z,21.91
2017-07-11T10:55:45.022Z,21.92
2017-07-11T10:56:10.516Z,21.92
2017-07-11T10:56:35.981Z,21.88
2017-07-11T10:57:01.460Z,21.92
2017-07-11T10:57:26.952Z,21.95
2017-07-11T10:57:52.437Z,21.92
2017-07-11T10:58:17.926Z,21.95
2017-07-11T10:58:43.394Z,21.98
2017-07-11T10:59:08.850Z,22.02
2017-07-11T10:59:34.340Z,22
2017-07-11T10:59:59.833Z,22.02
2017-07-11T11:00:25.321Z,21.92
2017-07-11T11:00:50.777Z,21.89
2017-07-11T11:01:16.252Z,22
2017-07-11T11:01:41.724Z,21.95